createdAt,value
2018-12-23T00:00:43.844Z,14.55
2018-12-23T00:03:12.431Z,10.85
2018-12-23T00:05:40.762Z,18.60
2018-12-23T00:08:09.173Z,12.93
2018-12-23T00:10:37.490Z,13.60
2018-12-23T00:13:06.095Z,15.28
2018-12-23T00:15:35.640Z,8.85
2018-12-23T00:18:13.976Z,10.68
2018-12-23T00:20:43.295Z,16.85
2018-12-23T00:23:11.653Z,17.48
2018-12-23T00:25:40.470Z,9.88
2018-12-23T00:28:08.898Z,15.03
2018-12-23T00:30:38.333Z,12.65
2018-12-23T00:33:06.769Z,7.40
2018-12-23T00:35:36.019Z,9.30
2018-12-23T00:38:05.487Z,6.03
2018-12-23T00:40:35.369Z,14.68
2018-12-23T00:43:04.204Z,11.43
2018-12-23T00:45:32.602Z,11.97
2018-12-23T00:48:06.448Z,12.40
2018-12-23T00:50:37.665Z,8.33
2018-12-23T00:53:07.925Z,5.15
2018-12-23T00:55:36.292Z,5.50
2018-12-23T00:58:04.601Z,7.28
2018-12-23T01:00:33.656Z,7.78
2018-12-23T01:03:01.977Z,5.15
2018-12-23T01:05:30.322Z,10.95
2018-12-23T01:07:58.744Z,5.80
2018-12-23T01:10:27.024Z,11.05
2018-12-23T01:12:55.320Z,3.77
2018-12-23T01:15:23.711Z,9.48
2018-12-23T01:17:52.026Z,4.40
2018-12-23T01:20:20.348Z,6.80
2018-12-23T01:22:48.813Z,6.05
2018-12-23T01:25:17.285Z,6.85
2018-12-23T01:27:45.574Z,3.15
2018-12-23T01:30:13.937Z,5.03
2018-12-23T01:32:42.214Z,15.65
2018-12-23T01:35:10.715Z,9.20
2018-12-23T01:37:39.025Z,6.28
2018-12-23T01:40:07.421Z,3.72
2018-12-23T01:42:35.800Z,2.95
2018-12-23T01:45:04.655Z,5.20
2018-12-23T01:47:32.932Z,6.70
2018-12-23T01:50:01.406Z,10.72
2018-12-23T01:52:30.061Z,5.70
2018-12-23T01:54:58.411Z,7.53
2018-12-23T01:57:26.896Z,8.55
2018-12-23T01:59:55.210Z,5.67
2018-12-23T02:02:23.481Z,13.60
2018-12-23T02:04:51.741Z,9.48
2018-12-23T02:07:20.047Z,11.35
2018-12-23T02:09:48.542Z,5.50
2018-12-23T02:12:17.377Z,5.35
2018-12-23T02:14:46.779Z,5.75
2018-12-23T02:17:15.103Z,7.85
2018-12-23T02:19:43.390Z,4.72
2018-12-23T02:22:11.751Z,15.55
2018-12-23T02:24:41.378Z,4.83
2018-12-23T02:27:09.760Z,4.70
2018-12-23T02:29:38.138Z,8.75
2018-12-23T02:32:06.511Z,5.22
2018-12-23T02:34:34.819Z,11.65
2018-12-23T02:37:03.264Z,8.03
2018-12-23T02:39:31.536Z,6.65
2018-12-23T02:41:59.995Z,9.25
2018-12-23T02:44:28.312Z,11.45
2018-12-23T02:46:56.554Z,19.35
2018-12-23T02:49:24.871Z,21.68
2018-12-23T02:51:53.181Z,23.83
2018-12-23T02:54:21.622Z,12.70
2018-12-23T02:56:49.950Z,26.45
2018-12-23T02:59:33.599Z,16.27
2018-12-23T03:02:02.087Z,26.90
2018-12-23T03:04:30.392Z,14.70
2018-12-23T03:06:58.905Z,9.80
2018-12-23T03:09:27.277Z,22.67
2018-12-23T03:11:55.724Z,16.95
2018-12-23T03:14:24.149Z,12.25
2018-12-23T03:16:52.495Z,15.40
2018-12-23T03:19:20.891Z,24.30
2018-12-23T03:21:49.294Z,15.98
2018-12-23T03:24:17.632Z,16.40
2018-12-23T03:26:45.945Z,14.83
2018-12-23T03:29:14.235Z,16.95
2018-12-23T03:31:42.472Z,16.95
2018-12-23T03:34:10.855Z,14.47
2018-12-23T03:36:39.214Z,14.15
2018-12-23T03:39:07.771Z,13.32
2018-12-23T03:41:36.290Z,13.30
2018-12-23T03:44:04.674Z,14.75
2018-12-23T03:46:33.214Z,13.65
2018-12-23T03:49:01.552Z,17.10
2018-12-23T03:51:29.878Z,12.37
2018-12-23T03:53:58.169Z,23.50
2018-12-23T03:56:26.559Z,27.05
2018-12-23T03:58:54.862Z,28.42
2018-12-23T04:01:23.231Z,27.42
2018-12-23T04:03:51.493Z,10.05
2018-12-23T04:06:24.411Z,13.93
2018-12-23T04:08:50.251Z,18.40
2018-12-23T04:11:18.571Z,18.15
2018-12-23T04:13:46.899Z,12.43
2018-12-23T04:16:15.215Z,26.05
2018-12-23T04:18:43.796Z,13.35
2018-12-23T04:21:12.064Z,13.90
2018-12-23T04:23:40.279Z,13.20
2018-12-23T04:26:08.599Z,12.93
2018-12-23T04:28:37.094Z,18.40
2018-12-23T04:31:05.468Z,11.45
2018-12-23T04:33:34.088Z,17.23
2018-12-23T04:36:02.378Z,11.75
2018-12-23T04:38:30.739Z,11.45
2018-12-23T04:40:59.055Z,18.45
2018-12-23T04:43:27.347Z,14.28
2018-12-23T04:45:56.000Z,11.03
2018-12-23T04:48:24.589Z,16.20
2018-12-23T04:50:52.941Z,9.73
2018-12-23T04:53:21.248Z,11.28
2018-12-23T04:55:49.561Z,12.50
2018-12-23T04:58:17.944Z,17.35
2018-12-23T05:00:46.315Z,14.73
2018-12-23T05:03:14.630Z,7.75
2018-12-23T05:05:42.964Z,8.33
2018-12-23T05:08:11.373Z,15.72
2018-12-23T05:10:39.830Z,15.63
2018-12-23T05:13:08.125Z,13.15
2018-12-23T05:15:36.486Z,13.83
2018-12-23T05:18:04.770Z,6.08
2018-12-23T05:20:33.039Z,4.12
2018-12-23T05:23:01.569Z,7.17
2018-12-23T05:25:29.918Z,13.15
2018-12-23T05:27:58.364Z,12.93
2018-12-23T05:30:26.596Z,4.90
2018-12-23T05:32:54.870Z,10.70
2018-12-23T05:35:23.294Z,11.40
2018-12-23T05:37:51.728Z,19.10
2018-12-23T05:40:20.082Z,15.95
2018-12-23T05:42:48.569Z,7.92
2018-12-23T05:45:17.016Z,6.37
2018-12-23T05:47:45.318Z,5.72
2018-12-23T05:50:13.707Z,9.70
2018-12-23T05:52:41.999Z,10.53
2018-12-23T05:55:10.403Z,17.77
2018-12-23T05:57:38.768Z,4.33
2018-12-23T06:00:07.402Z,6.58
2018-12-23T06:02:35.699Z,12.85
2018-12-23T06:05:04.313Z,14.63
2018-12-23T06:07:32.708Z,9.90
2018-12-23T06:10:01.104Z,13.95
2018-12-23T06:12:30.492Z,7.47
2018-12-23T06:14:58.837Z,8.83
2018-12-23T06:17:27.461Z,9.55
2018-12-23T06:19:55.776Z,13.80
2018-12-23T06:22:24.270Z,10.05
2018-12-23T06:24:52.617Z,10.82
2018-12-23T06:27:20.944Z,14.30
2018-12-23T06:29:49.237Z,7.62
2018-12-23T06:32:17.709Z,9.50
2018-12-23T06:34:46.030Z,7.72
2018-12-23T06:37:14.530Z,15.20
2018-12-23T06:39:42.977Z,9.78
2018-12-23T06:42:11.316Z,12.85
2018-12-23T06:44:40.448Z,9.58
2018-12-23T06:47:08.793Z,9.85
2018-12-23T06:49:37.242Z,8.00
2018-12-23T06:52:05.783Z,7.47
2018-12-23T06:54:34.224Z,6.65
2018-12-23T06:57:02.615Z,8.90
2018-12-23T06:59:31.712Z,11.80
2018-12-23T07:01:59.966Z,6.50
2018-12-23T07:04:28.224Z,11.45
2018-12-23T07:06:56.605Z,12.30
2018-12-23T07:09:24.913Z,9.85
2018-12-23T07:11:53.314Z,8.83
2018-12-23T07:14:21.647Z,7.35
2018-12-23T07:16:50.689Z,5.35
2018-12-23T07:19:18.917Z,8.60
2018-12-23T07:21:47.336Z,6.47
2018-12-23T07:24:16.037Z,7.67
2018-12-23T07:26:44.362Z,12.95
2018-12-23T07:29:12.680Z,7.10
2018-12-23T07:31:41.223Z,10.68
2018-12-23T07:34:10.192Z,4.40
2018-12-23T07:37:29.171Z,10.58
2018-12-23T07:40:18.097Z,10.50
2018-12-23T07:43:06.825Z,4.47
2018-12-23T07:45:55.404Z,12.03
2018-12-23T07:48:44.456Z,8.98
2018-12-23T07:51:33.199Z,5.83
2018-12-23T07:54:21.752Z,11.30
2018-12-23T07:57:10.718Z,10.53
2018-12-23T07:59:59.476Z,9.30
2018-12-23T08:02:29.094Z,5.70
2018-12-23T08:05:17.578Z,5.97
2018-12-23T08:08:06.093Z,5.83
2018-12-23T08:10:54.846Z,4.55
2018-12-23T08:16:18.738Z,7.75
2018-12-23T08:19:07.179Z,15.90
2018-12-23T08:21:55.935Z,13.13
2018-12-23T08:30:16.079Z,6.78
2018-12-23T08:33:04.513Z,7.60
2018-12-23T08:35:53.382Z,16.77
2018-12-23T08:38:42.578Z,23.83
2018-12-23T08:41:33.031Z,18.85
2018-12-23T08:44:22.080Z,18.80
2018-12-23T08:47:10.967Z,18.42
2018-12-23T08:49:59.924Z,11.97
2018-12-23T08:55:56.280Z,18.23
2018-12-23T08:58:45.110Z,10.65
2018-12-23T09:01:34.133Z,14.83
2018-12-23T09:04:23.161Z,10.85
2018-12-23T09:07:11.922Z,7.12
2018-12-23T09:10:00.928Z,6.80
2018-12-23T09:12:49.339Z,15.18
2018-12-23T09:15:37.769Z,18.17
2018-12-23T09:18:46.829Z,9.73
2018-12-23T09:21:35.888Z,8.68
2018-12-23T09:24:24.596Z,12.07
2018-12-23T09:26:55.056Z,14.45
2018-12-23T09:29:43.899Z,15.80
2018-12-23T09:32:32.767Z,13.65
2018-12-23T09:38:01.653Z,12.63
2018-12-23T09:40:50.758Z,23.10
2018-12-23T09:43:39.467Z,7.97
2018-12-23T09:46:28.277Z,12.07
2018-12-23T09:49:17.019Z,11.33
2018-12-23T09:52:05.779Z,9.65
2018-12-23T09:54:54.342Z,18.92
2018-12-23T09:57:43.491Z,9.35
2018-12-23T10:00:32.172Z,19.62
2018-12-23T10:03:20.697Z,8.58
2018-12-23T10:05:50.313Z,17.42
2018-12-23T10:11:27.877Z,14.78
2018-12-23T10:14:16.117Z,7.58
2018-12-23T10:17:04.833Z,8.20
2018-12-23T10:19:53.683Z,19.80
2018-12-23T10:22:42.230Z,7.47
2018-12-23T10:25:30.966Z,11.40
2018-12-23T10:28:19.777Z,13.35
2018-12-23T10:31:08.625Z,12.70
2018-12-23T10:37:04.772Z,9.65
2018-12-23T10:39:53.525Z,15.88
2018-12-23T10:42:42.078Z,21.30
2018-12-23T10:45:30.828Z,12.70
2018-12-23T10:48:19.355Z,13.70
2018-12-23T10:51:08.035Z,10.38
2018-12-23T10:53:56.687Z,6.50
2018-12-23T10:56:45.431Z,12.53
2018-12-23T10:59:34.212Z,11.95
2018-12-23T11:02:22.949Z,5.53
2018-12-23T11:05:11.799Z,10.40
2018-12-23T11:08:00.103Z,7.55
2018-12-23T11:10:48.643Z,8.40
2018-12-23T11:13:37.051Z,8.03
2018-12-23T11:16:25.429Z,8.75
2018-12-23T11:19:14.167Z,15.05
2018-12-23T11:22:02.941Z,13.10
2018-12-23T11:24:51.688Z,18.10
2018-12-23T11:30:15.685Z,9.03
2018-12-23T11:32:45.598Z,14.93
2018-12-23T11:35:34.016Z,10.72
2018-12-23T11:38:22.532Z,11.55
2018-12-23T11:41:11.130Z,12.00
2018-12-23T11:44:00.225Z,15.30
2018-12-23T11:46:48.652Z,16.27
2018-12-23T11:49:37.383Z,17.87
2018-12-23T11:52:26.259Z,8.25
2018-12-23T11:54:55.690Z,14.20
2018-12-23T11:57:44.090Z,13.40
2018-12-23T12:00:32.368Z,19.25
2018-12-23T12:03:20.829Z,28.35
2018-12-23T12:05:50.119Z,15.00
2018-12-23T12:08:43.674Z,17.00
2018-12-23T12:11:29.173Z,14.68
2018-12-23T12:14:17.919Z,15.13
2018-12-23T12:17:06.390Z,13.90
2018-12-23T12:19:55.118Z,23.20
2018-12-23T12:22:44.188Z,15.65
2018-12-23T12:25:32.963Z,17.62
2018-12-23T12:28:21.355Z,10.35
2018-12-23T12:31:10.245Z,15.83
2018-12-23T12:33:58.977Z,15.75
2018-12-23T12:36:47.708Z,11.30
2018-12-23T12:39:36.720Z,13.32
2018-12-23T12:42:06.437Z,6.40
2018-12-23T12:44:36.490Z,17.02
2018-12-23T12:47:06.594Z,17.70
2018-12-23T12:49:55.489Z,14.60
2018-12-23T12:52:44.496Z,6.90
2018-12-23T12:55:33.059Z,11.15
2018-12-23T12:58:21.578Z,12.98
2018-12-23T13:01:10.863Z,18.42
2018-12-23T13:04:19.971Z,8.90
2018-12-23T13:06:49.974Z,7.60
2018-12-23T13:09:39.086Z,9.33
2018-12-23T13:12:08.937Z,6.08
2018-12-23T13:14:39.214Z,12.95
2018-12-23T13:17:09.278Z,13.78
2018-12-23T13:19:58.142Z,17.70
2018-12-23T13:22:28.008Z,13.32
2018-12-23T13:25:16.880Z,10.25
2018-12-23T13:27:47.783Z,8.53
2018-12-23T13:30:36.379Z,14.15
2018-12-23T13:33:05.966Z,16.23
2018-12-23T13:35:35.365Z,17.02
2018-12-23T13:38:24.028Z,20.77
2018-12-23T13:41:09.912Z,19.67
2018-12-23T13:44:17.598Z,9.98
2018-12-23T13:47:25.312Z,11.00
2018-12-23T13:50:28.371Z,11.65
2018-12-23T13:53:36.131Z,15.35
2018-12-23T13:56:43.719Z,12.78
2018-12-23T13:59:51.141Z,14.10
2018-12-23T14:02:58.936Z,22.93
2018-12-23T14:06:06.552Z,13.10
2018-12-23T14:08:59.051Z,9.68
2018-12-23T14:12:06.628Z,11.25
2018-12-23T14:14:36.060Z,15.72
2018-12-23T14:17:06.033Z,5.80
2018-12-23T14:19:54.845Z,6.42
2018-12-23T14:22:25.248Z,13.60
2018-12-23T14:25:14.046Z,9.98
2018-12-23T14:27:43.803Z,9.83
2018-12-23T14:30:32.892Z,10.43
2018-12-23T14:33:21.631Z,3.05
2018-12-23T14:36:10.811Z,8.23
2018-12-23T14:38:40.757Z,10.35
2018-12-23T14:41:10.742Z,4.85
2018-12-23T14:43:40.850Z,9.63
2018-12-23T14:46:29.459Z,9.25
2018-12-23T14:48:59.325Z,15.05
2018-12-23T14:51:28.661Z,8.28
2018-12-23T14:53:58.790Z,4.45
2018-12-23T14:56:47.627Z,3.05
2018-12-23T15:02:24.903Z,8.70
2018-12-23T15:05:13.601Z,2.47
2018-12-23T15:07:43.171Z,4.85
2018-12-23T15:10:31.968Z,4.10
2018-12-23T15:13:01.792Z,6.12
2018-12-23T15:15:50.438Z,3.35
2018-12-23T15:21:54.549Z,4.60
2018-12-23T15:24:43.631Z,3.27
2018-12-23T15:27:13.210Z,5.92
2018-12-23T15:29:43.199Z,3.77
2018-12-23T15:32:31.871Z,3.92
2018-12-23T15:35:20.760Z,5.90
2018-12-23T15:38:09.554Z,2.37
2018-12-23T15:40:58.243Z,4.22
2018-12-23T15:43:46.850Z,4.75
2018-12-23T15:49:23.893Z,1.62
2018-12-23T15:55:02.286Z,3.70
2018-12-23T15:57:33.747Z,2.12
2018-12-23T16:00:04.016Z,3.33
2018-12-23T16:02:33.823Z,4.92
2018-12-23T16:05:22.140Z,5.55
2018-12-23T16:08:10.939Z,4.47
2018-12-23T16:13:35.945Z,3.20
2018-12-23T16:16:05.292Z,3.15
2018-12-23T16:18:54.445Z,3.55
2018-12-23T16:21:43.388Z,4.10
2018-12-23T16:24:32.108Z,8.30
2018-12-23T16:27:02.567Z,7.17
2018-12-23T16:29:51.500Z,3.10
2018-12-23T16:32:40.282Z,5.28
2018-12-23T16:35:28.739Z,7.03
2018-12-23T16:38:17.748Z,3.40
2018-12-23T16:41:06.300Z,2.87
2018-12-23T16:43:54.719Z,2.08
2018-12-23T16:46:43.432Z,4.15
2018-12-23T16:49:31.716Z,2.77
2018-12-23T16:52:20.227Z,3.40
2018-12-23T16:55:09.007Z,2.20
2018-12-23T17:00:51.565Z,3.55
2018-12-23T17:04:00.795Z,1.62
2018-12-23T17:06:30.864Z,5.33
2018-12-23T17:09:00.590Z,3.50
2018-12-23T17:11:30.918Z,4.55
2018-12-23T17:14:19.992Z,2.22
2018-12-23T17:17:08.746Z,4.03
2018-12-23T17:19:57.607Z,2.95
2018-12-23T17:22:26.915Z,4.40
2018-12-23T17:25:15.211Z,7.65
2018-12-23T17:28:03.653Z,3.45
2018-12-23T17:30:33.408Z,3.05
2018-12-23T17:33:22.506Z,1.60
2018-12-23T17:36:11.333Z,1.90
2018-12-23T17:38:40.880Z,6.55
2018-12-23T17:41:10.358Z,2.22
2018-12-23T17:43:40.080Z,3.55
2018-12-23T17:46:28.847Z,1.20
2018-12-23T17:49:17.705Z,2.37
2018-12-23T17:52:08.909Z,1.25
2018-12-23T17:57:27.477Z,1.55
2018-12-23T18:00:15.928Z,1.67
2018-12-23T18:03:04.644Z,1.12
2018-12-23T18:05:53.444Z,1.70
2018-12-23T18:08:42.091Z,1.12
2018-12-23T18:11:30.567Z,1.12
2018-12-23T18:14:19.584Z,0.80
2018-12-23T18:17:09.143Z,1.45
2018-12-23T18:19:57.557Z,1.17
2018-12-23T18:22:27.821Z,0.82
2018-12-23T18:25:16.594Z,2.20
2018-12-23T18:27:46.725Z,1.40
2018-12-23T18:30:35.147Z,0.87
2018-12-23T18:33:05.172Z,0.70
2018-12-23T18:35:54.010Z,0.63
2018-12-23T18:40:58.395Z,0.67
2018-12-23T18:43:27.824Z,0.80
2018-12-23T18:45:58.181Z,1.50
2018-12-23T18:48:47.313Z,3.52
2018-12-23T18:51:36.281Z,2.27
2018-12-23T18:54:25.051Z,0.80
2018-12-23T18:57:00.949Z,0.60
2018-12-23T19:00:10.232Z,0.70
2018-12-23T19:02:59.332Z,0.60
2018-12-23T19:05:48.046Z,0.70
2018-12-23T19:08:41.052Z,0.60
2018-12-23T19:11:30.039Z,0.60
2018-12-23T19:14:11.076Z,0.70
2018-12-23T19:17:07.382Z,0.62
2018-12-23T19:20:14.800Z,0.60
2018-12-23T19:23:06.739Z,0.70
2018-12-23T19:26:14.545Z,1.55
2018-12-23T19:29:29.937Z,0.60
2018-12-23T19:32:37.595Z,0.70
2018-12-23T19:35:45.320Z,1.40
2018-12-23T19:38:34.053Z,0.78
2018-12-23T19:41:41.424Z,0.80
2018-12-23T19:44:49.105Z,1.10
2018-12-23T19:47:56.758Z,0.90
2018-12-23T19:51:04.206Z,2.67
2018-12-23T19:54:11.613Z,0.60
2018-12-23T19:57:19.261Z,0.60
2018-12-23T20:00:27.226Z,0.82
2018-12-23T20:03:31.316Z,1.17
2018-12-23T20:06:38.795Z,0.60
2018-12-23T20:09:32.624Z,0.60
2018-12-23T20:12:41.385Z,0.75
2018-12-23T20:15:32.295Z,0.55
2018-12-23T20:18:39.995Z,0.60
2018-12-23T20:21:47.440Z,0.60
2018-12-23T20:24:55.123Z,0.70
2018-12-23T20:28:02.554Z,0.57
2018-12-23T20:31:10.218Z,0.60
2018-12-23T20:36:57.293Z,0.60
2018-12-23T20:40:19.726Z,1.97
2018-12-23T20:43:40.383Z,0.70
2018-12-23T20:46:48.382Z,1.53
2018-12-23T20:49:44.097Z,0.70
2018-12-23T20:52:42.384Z,0.70
2018-12-23T20:55:45.067Z,0.80
2018-12-23T20:58:39.331Z,0.70
2018-12-23T21:01:40.555Z,0.70
2018-12-23T21:04:41.755Z,0.60
2018-12-23T21:07:41.958Z,0.60
2018-12-23T21:10:41.020Z,2.30
2018-12-23T21:13:47.136Z,0.60
2018-12-23T21:16:44.394Z,0.63
2018-12-23T21:20:12.501Z,0.60
2018-12-23T21:23:24.868Z,0.60
2018-12-23T21:26:41.576Z,0.63
2018-12-23T21:29:39.947Z,0.80
2018-12-23T21:32:43.881Z,0.70
2018-12-23T21:36:00.074Z,0.60
2018-12-23T21:38:57.640Z,0.50
2018-12-23T21:42:01.547Z,0.50
2018-12-23T21:45:20.517Z,0.75
2018-12-23T21:48:22.718Z,0.53
2018-12-23T21:51:18.928Z,1.67
2018-12-23T21:54:27.514Z,1.00
2018-12-23T21:57:41.646Z,0.50
2018-12-23T22:00:41.178Z,1.33
2018-12-23T22:03:55.003Z,0.60
2018-12-23T22:06:43.606Z,0.60
2018-12-23T22:09:54.260Z,2.33
2018-12-23T22:13:00.281Z,0.50
2018-12-23T22:15:30.188Z,0.60
2018-12-23T22:17:59.319Z,0.60
2018-12-23T22:20:28.966Z,0.57
2018-12-23T22:22:58.466Z,0.70
2018-12-23T22:25:28.489Z,1.77
2018-12-23T22:28:01.052Z,1.17
2018-12-23T22:30:31.066Z,0.60
2018-12-23T22:33:00.424Z,1.80
2018-12-23T22:35:29.984Z,1.20
2018-12-23T22:38:00.411Z,0.60
2018-12-23T22:40:29.442Z,0.60
2018-12-23T22:42:58.617Z,0.60
2018-12-23T22:45:28.543Z,0.50
2018-12-23T22:47:58.121Z,1.70
2018-12-23T22:50:27.570Z,0.50
2018-12-23T22:52:58.301Z,2.35
2018-12-23T22:55:27.950Z,6.83
2018-12-23T22:57:58.046Z,0.90
2018-12-23T23:00:31.359Z,0.50
2018-12-23T23:03:08.752Z,0.63
2018-12-23T23:05:36.329Z,1.33
2018-12-23T23:08:08.714Z,0.70
2018-12-23T23:10:40.257Z,0.80
2018-12-23T23:13:18.305Z,0.50
2018-12-23T23:15:41.156Z,0.50
2018-12-23T23:18:10.454Z,0.60
2018-12-23T23:20:39.942Z,2.72
2018-12-23T23:23:09.867Z,0.60
2018-12-23T23:25:39.457Z,0.70
2018-12-23T23:28:08.724Z,0.60
2018-12-23T23:30:40.021Z,0.60
2018-12-23T23:33:09.807Z,0.50
2018-12-23T23:35:44.644Z,0.50
2018-12-23T23:38:17.145Z,0.50
2018-12-23T23:40:47.204Z,0.50
2018-12-23T23:43:18.157Z,0.60
2018-12-23T23:45:49.530Z,1.20
2018-12-23T23:48:21.579Z,1.27
2018-12-23T23:50:52.560Z,0.60
2018-12-23T23:53:24.260Z,0.80
2018-12-23T23:55:54.037Z,3.13
2018-12-23T23:58:23.488Z,1.60
